Main page
METAR-TAF:

METAR-TAF

Airports :

Bandırma Airport

Bandirma, Turkey

latitude: 40-19N, longitude: 027-58E, elevation: 51 m

METAR: missing

Time: 12:41 (09:41 UTC)

Forecast

The report was made 2 hours and 1 minutes ago, at 07:40 UTC
Forecast valid from 24 at 09 UTC to 24 at 18 UTC
Wind 17 kt from the North
Visibility 10 km or more
Few clouds at a height of 1500 ft
Scattered clouds at a height of 3500 ft
Temporary
from 24 at 10 UTC to 24 at 13 UTC
light rain showers

TAF: LTBG 240740Z 2409/2418 36017KT 9999 FEW015 SCT035 TEMPO 2410/2413 -SHRA

Weather observations and forecasts of more than 4000 airports (METAR and TAF reports).

The available stations are represented by yellow and red dots on the map.

Hover mouse over dot to see the name of the station.

Then click to see weather observations and forecasts.

To change the map : click on the green buttons with a black cross to zoom in, on the green button with a dash to zoom out, or on the green arrows for adjacent maps.


METAR-TAF: